sensor_id;sensor_type;location;lat;lon;timestamp;temperature;humidity
44705;DHT22;30431;48.520;9.046;2022-12-20T00:01:56;1.60;99.90
44705;DHT22;30431;48.520;9.046;2022-12-20T00:04:24;1.50;99.90
44705;DHT22;30431;48.520;9.046;2022-12-20T00:06:51;1.60;99.90
44705;DHT22;30431;48.520;9.046;2022-12-20T00:09:19;1.60;99.90
44705;DHT22;30431;48.520;9.046;2022-12-20T00:11:46;1.60;99.90
44705;DHT22;30431;48.520;9.046;2022-12-20T00:14:13;1.60;99.90
44705;DHT22;30431;48.520;9.046;2022-12-20T00:16:40;1.50;99.90
44705;DHT22;30431;48.520;9.046;2022-12-20T00:19:09;1.50;99.90
44705;DHT22;30431;48.520;9.046;2022-12-20T00:21:37;1.50;99.90
44705;DHT22;30431;48.520;9.046;2022-12-20T00:24:07;1.60;99.90
44705;DHT22;30431;48.520;9.046;2022-12-20T00:26:37;1.50;99.90
44705;DHT22;30431;48.520;9.046;2022-12-20T00:29:07;1.50;99.90
44705;DHT22;30431;48.520;9.046;2022-12-20T00:31:35;1.50;99.90
44705;DHT22;30431;48.520;9.046;2022-12-20T00:34:02;1.40;99.90
44705;DHT22;30431;48.520;9.046;2022-12-20T00:36:31;1.40;99.90
44705;DHT22;30431;48.520;9.046;2022-12-20T00:39:01;1.50;99.90
44705;DHT22;30431;48.520;9.046;2022-12-20T00:41:31;1.50;99.90
44705;DHT22;30431;48.520;9.046;2022-12-20T00:44:01;1.60;99.90
44705;DHT22;30431;48.520;9.046;2022-12-20T00:46:29;1.70;99.90
44705;DHT22;30431;48.520;9.046;2022-12-20T00:48:57;1.80;99.90
44705;DHT22;30431;48.520;9.046;2022-12-20T00:51:27;1.90;99.90
44705;DHT22;30431;48.520;9.046;2022-12-20T00:53:57;1.90;99.90
44705;DHT22;30431;48.520;9.046;2022-12-20T00:56:24;1.90;99.90
44705;DHT22;30431;48.520;9.046;2022-12-20T00:58:56;1.90;99.90
44705;DHT22;30431;48.520;9.046;2022-12-20T01:01:26;2.00;99.90
44705;DHT22;30431;48.520;9.046;2022-12-20T01:03:55;1.90;99.90
44705;DHT22;30431;48.520;9.046;2022-12-20T01:06:28;1.90;99.90
44705;DHT22;30431;48.520;9.046;2022-12-20T01:08:56;1.90;99.90
44705;DHT22;30431;48.520;9.046;2022-12-20T01:11:28;2.00;99.90
44705;DHT22;30431;48.520;9.046;2022-12-20T01:13:58;2.00;99.90
44705;DHT22;30431;48.520;9.046;2022-12-20T01:16:30;1.90;99.90
44705;DHT22;30431;48.520;9.046;2022-12-20T01:18:57;2.00;99.90
44705;DHT22;30431;48.520;9.046;2022-12-20T01:21:26;2.00;99.90
44705;DHT22;30431;48.520;9.046;2022-12-20T01:23:53;2.00;99.90
44705;DHT22;30431;48.520;9.046;2022-12-20T01:26:26;2.00;99.90
44705;DHT22;30431;48.520;9.046;2022-12-20T01:28:57;2.00;99.90
44705;DHT22;30431;48.520;9.046;2022-12-20T01:31:25;2.00;99.90
44705;DHT22;30431;48.520;9.046;2022-12-20T01:33:53;2.00;99.90
44705;DHT22;30431;48.520;9.046;2022-12-20T01:36:26;2.10;99.90
44705;DHT22;30431;48.520;9.046;2022-12-20T01:39:06;2.00;99.90
44705;DHT22;30431;48.520;9.046;2022-12-20T01:41:39;2.00;99.90
44705;DHT22;30431;48.520;9.046;2022-12-20T01:46:54;1.90;99.90
44705;DHT22;30431;48.520;9.046;2022-12-20T01:54:41;2.00;99.90
44705;DHT22;30431;48.520;9.046;2022-12-20T01:57:23;2.10;99.90
44705;DHT22;30431;48.520;9.046;2022-12-20T01:59:55;2.10;99.90
44705;DHT22;30431;48.520;9.046;2022-12-20T02:02:22;2.20;99.90
44705;DHT22;30431;48.520;9.046;2022-12-20T02:04:49;2.30;99.90
44705;DHT22;30431;48.520;9.046;2022-12-20T02:07:20;2.30;99.90
44705;DHT22;30431;48.520;9.046;2022-12-20T02:09:50;2.30;99.90
44705;DHT22;30431;48.520;9.046;2022-12-20T02:12:22;2.30;99.90
44705;DHT22;30431;48.520;9.046;2022-12-20T02:31:33;2.00;99.90
44705;DHT22;30431;48.520;9.046;2022-12-20T02:34:04;2.00;99.90
44705;DHT22;30431;48.520;9.046;2022-12-20T02:36:33;1.90;99.90
44705;DHT22;30431;48.520;9.046;2022-12-20T02:39:03;1.90;99.90
44705;DHT22;30431;48.520;9.046;2022-12-20T02:41:55;1.90;99.90
44705;DHT22;30431;48.520;9.046;2022-12-20T02:44:26;1.90;99.90
44705;DHT22;30431;48.520;9.046;2022-12-20T02:47:25;1.90;99.90
44705;DHT22;30431;48.520;9.046;2022-12-20T02:49:53;1.80;99.90
44705;DHT22;30431;48.520;9.046;2022-12-20T02:52:23;1.80;99.90
44705;DHT22;30431;48.520;9.046;2022-12-20T02:54:57;1.90;99.90
44705;DHT22;30431;48.520;9.046;2022-12-20T02:57:58;1.90;99.90
44705;DHT22;30431;48.520;9.046;2022-12-20T03:00:27;2.00;99.90
44705;DHT22;30431;48.520;9.046;2022-12-20T03:03:04;1.90;99.90
44705;DHT22;30431;48.520;9.046;2022-12-20T03:05:53;1.90;99.90
44705;DHT22;30431;48.520;9.046;2022-12-20T03:08:23;1.90;99.90
44705;DHT22;30431;48.520;9.046;2022-12-20T03:10:51;1.90;99.90
44705;DHT22;30431;48.520;9.046;2022-12-20T03:13:22;1.90;99.90
44705;DHT22;30431;48.520;9.046;2022-12-20T03:15:55;1.80;99.90
44705;DHT22;30431;48.520;9.046;2022-12-20T03:18:22;1.80;99.90
44705;DHT22;30431;48.520;9.046;2022-12-20T03:20:51;1.80;99.90
44705;DHT22;30431;48.520;9.046;2022-12-20T03:23:19;1.70;99.90
44705;DHT22;30431;48.520;9.046;2022-12-20T03:25:48;1.70;99.90
44705;DHT22;30431;48.520;9.046;2022-12-20T03:28:25;1.60;99.90
44705;DHT22;30431;48.520;9.046;2022-12-20T03:30:55;1.50;99.90
44705;DHT22;30431;48.520;9.046;2022-12-20T03:33:25;1.40;99.90
44705;DHT22;30431;48.520;9.046;2022-12-20T03:35:53;1.40;99.90
44705;DHT22;30431;48.520;9.046;2022-12-20T03:38:20;1.40;99.90
44705;DHT22;30431;48.520;9.046;2022-12-20T03:40:47;1.40;99.90
44705;DHT22;30431;48.520;9.046;2022-12-20T03:43:22;1.40;99.90
44705;DHT22;30431;48.520;9.046;2022-12-20T03:45:49;1.50;99.90
44705;DHT22;30431;48.520;9.046;2022-12-20T03:48:16;1.60;99.90
44705;DHT22;30431;48.520;9.046;2022-12-20T03:50:43;1.60;99.90
44705;DHT22;30431;48.520;9.046;2022-12-20T03:53:10;1.60;99.90
44705;DHT22;30431;48.520;9.046;2022-12-20T03:55:38;1.60;99.90
44705;DHT22;30431;48.520;9.046;2022-12-20T03:58:10;1.70;99.90
44705;DHT22;30431;48.520;9.046;2022-12-20T04:00:38;1.80;99.90
44705;DHT22;30431;48.520;9.046;2022-12-20T04:03:31;1.70;99.90
44705;DHT22;30431;48.520;9.046;2022-12-20T04:05:58;1.70;99.90
44705;DHT22;30431;48.520;9.046;2022-12-20T04:08:30;1.90;99.90
44705;DHT22;30431;48.520;9.046;2022-12-20T04:10:59;2.00;99.90
44705;DHT22;30431;48.520;9.046;2022-12-20T04:13:59;2.10;99.90
44705;DHT22;30431;48.520;9.046;2022-12-20T04:16:28;2.20;99.90
44705;DHT22;30431;48.520;9.046;2022-12-20T04:18:58;2.10;99.90
44705;DHT22;30431;48.520;9.046;2022-12-20T04:21:32;2.00;99.90
44705;DHT22;30431;48.520;9.046;2022-12-20T04:24:04;2.10;99.90
44705;DHT22;30431;48.520;9.046;2022-12-20T04:26:57;2.00;99.90
44705;DHT22;30431;48.520;9.046;2022-12-20T04:29:24;2.00;99.90
44705;DHT22;30431;48.520;9.046;2022-12-20T04:31:53;2.00;99.90
44705;DHT22;30431;48.520;9.046;2022-12-20T04:34:21;2.10;99.90
44705;DHT22;30431;48.520;9.046;2022-12-20T04:36:50;2.10;99.90
44705;DHT22;30431;48.520;9.046;2022-12-20T04:39:30;2.00;99.90
44705;DHT22;30431;48.520;9.046;2022-12-20T04:42:18;2.10;99.90
44705;DHT22;30431;48.520;9.046;2022-12-20T04:44:46;2.20;99.90
44705;DHT22;30431;48.520;9.046;2022-12-20T04:47:18;2.20;99.90
44705;DHT22;30431;48.520;9.046;2022-12-20T04:49:47;2.20;99.90
44705;DHT22;30431;48.520;9.046;2022-12-20T04:52:15;2.20;99.90
44705;DHT22;30431;48.520;9.046;2022-12-20T04:55:01;2.20;99.90
44705;DHT22;30431;48.520;9.046;2022-12-20T04:57:32;2.10;99.90
44705;DHT22;30431;48.520;9.046;2022-12-20T05:00:02;2.10;99.90
44705;DHT22;30431;48.520;9.046;2022-12-20T05:02:30;2.10;99.90
44705;DHT22;30431;48.520;9.046;2022-12-20T05:05:04;2.10;99.90
44705;DHT22;30431;48.520;9.046;2022-12-20T05:07:39;2.10;99.90
44705;DHT22;30431;48.520;9.046;2022-12-20T05:10:09;2.10;99.90
44705;DHT22;30431;48.520;9.046;2022-12-20T05:12:39;2.10;99.90
44705;DHT22;30431;48.520;9.046;2022-12-20T05:15:11;2.20;99.90
44705;DHT22;30431;48.520;9.046;2022-12-20T05:17:39;2.20;99.90
44705;DHT22;30431;48.520;9.046;2022-12-20T05:20:07;2.30;99.90
44705;DHT22;30431;48.520;9.046;2022-12-20T05:22:36;2.20;99.90
44705;DHT22;30431;48.520;9.046;2022-12-20T05:25:24;2.20;99.90
44705;DHT22;30431;48.520;9.046;2022-12-20T05:28:11;2.30;99.90
44705;DHT22;30431;48.520;9.046;2022-12-20T05:30:39;2.20;99.90
44705;DHT22;30431;48.520;9.046;2022-12-20T05:33:08;2.10;99.90
44705;DHT22;30431;48.520;9.046;2022-12-20T05:35:42;2.10;99.90
44705;DHT22;30431;48.520;9.046;2022-12-20T05:38:16;2.30;99.90
44705;DHT22;30431;48.520;9.046;2022-12-20T05:40:46;2.30;99.90
44705;DHT22;30431;48.520;9.046;2022-12-20T05:43:19;2.20;99.90
44705;DHT22;30431;48.520;9.046;2022-12-20T05:45:50;2.10;99.90
44705;DHT22;30431;48.520;9.046;2022-12-20T05:48:27;2.00;99.90
44705;DHT22;30431;48.520;9.046;2022-12-20T05:50:54;2.10;99.90
44705;DHT22;30431;48.520;9.046;2022-12-20T05:53:25;2.10;99.90
44705;DHT22;30431;48.520;9.046;2022-12-20T05:56:01;2.20;99.90
44705;DHT22;30431;48.520;9.046;2022-12-20T05:58:31;2.30;99.90
44705;DHT22;30431;48.520;9.046;2022-12-20T06:01:05;2.30;99.90
44705;DHT22;30431;48.520;9.046;2022-12-20T06:03:37;2.20;99.90
44705;DHT22;30431;48.520;9.046;2022-12-20T06:06:11;2.30;99.90
44705;DHT22;30431;48.520;9.046;2022-12-20T06:08:47;2.30;99.90
44705;DHT22;30431;48.520;9.046;2022-12-20T06:11:22;2.20;99.90
44705;DHT22;30431;48.520;9.046;2022-12-20T06:14:08;2.10;99.90
44705;DHT22;30431;48.520;9.046;2022-12-20T06:16:42;2.20;99.90
44705;DHT22;30431;48.520;9.046;2022-12-20T06:19:10;2.20;99.90
44705;DHT22;30431;48.520;9.046;2022-12-20T06:21:47;2.30;99.90
44705;DHT22;30431;48.520;9.046;2022-12-20T06:24:17;2.30;99.90
44705;DHT22;30431;48.520;9.046;2022-12-20T06:26:44;2.30;99.90
44705;DHT22;30431;48.520;9.046;2022-12-20T06:29:12;2.30;99.90
44705;DHT22;30431;48.520;9.046;2022-12-20T06:31:49;2.40;99.90
44705;DHT22;30431;48.520;9.046;2022-12-20T06:34:17;2.40;99.90
44705;DHT22;30431;48.520;9.046;2022-12-20T06:36:46;2.50;99.90
44705;DHT22;30431;48.520;9.046;2022-12-20T06:39:18;2.60;99.90
44705;DHT22;30431;48.520;9.046;2022-12-20T06:41:58;2.50;99.90
44705;DHT22;30431;48.520;9.046;2022-12-20T06:44:25;2.50;99.90
44705;DHT22;30431;48.520;9.046;2022-12-20T06:46:52;2.60;99.90
44705;DHT22;30431;48.520;9.046;2022-12-20T06:49:19;2.70;99.90
44705;DHT22;30431;48.520;9.046;2022-12-20T06:51:48;2.80;99.90
44705;DHT22;30431;48.520;9.046;2022-12-20T06:54:24;2.80;99.90
44705;DHT22;30431;48.520;9.046;2022-12-20T06:56:51;2.70;99.90
44705;DHT22;30431;48.520;9.046;2022-12-20T06:59:18;2.70;99.90
44705;DHT22;30431;48.520;9.046;2022-12-20T07:01:45;2.60;99.90
44705;DHT22;30431;48.520;9.046;2022-12-20T07:04:12;2.60;99.90
44705;DHT22;30431;48.520;9.046;2022-12-20T07:06:42;2.70;99.90
44705;DHT22;30431;48.520;9.046;2022-12-20T07:09:11;2.60;99.90
44705;DHT22;30431;48.520;9.046;2022-12-20T07:11:38;2.60;99.90
44705;DHT22;30431;48.520;9.046;2022-12-20T07:14:05;2.60;99.90
44705;DHT22;30431;48.520;9.046;2022-12-20T07:16:32;2.50;99.90
44705;DHT22;30431;48.520;9.046;2022-12-20T07:18:59;2.50;99.90
44705;DHT22;30431;48.520;9.046;2022-12-20T07:21:28;2.50;99.90
44705;DHT22;30431;48.520;9.046;2022-12-20T07:23:56;2.50;99.90
44705;DHT22;30431;48.520;9.046;2022-12-20T07:26:25;2.50;99.90
44705;DHT22;30431;48.520;9.046;2022-12-20T07:28:54;2.50;99.90
44705;DHT22;30431;48.520;9.046;2022-12-20T07:31:26;2.50;99.90
44705;DHT22;30431;48.520;9.046;2022-12-20T07:33:53;2.60;99.90
44705;DHT22;30431;48.520;9.046;2022-12-20T07:36:20;2.70;99.90
44705;DHT22;30431;48.520;9.046;2022-12-20T07:38:47;2.80;99.90
44705;DHT22;30431;48.520;9.046;2022-12-20T07:41:16;2.90;99.90
44705;DHT22;30431;48.520;9.046;2022-12-20T07:43:45;2.90;99.90
44705;DHT22;30431;48.520;9.046;2022-12-20T07:46:13;3.00;99.90
44705;DHT22;30431;48.520;9.046;2022-12-20T07:48:41;3.20;99.90
44705;DHT22;30431;48.520;9.046;2022-12-20T07:51:09;3.10;99.90
44705;DHT22;30431;48.520;9.046;2022-12-20T07:53:45;3.00;99.90
44705;DHT22;30431;48.520;9.046;2022-12-20T07:56:14;3.10;99.90
44705;DHT22;30431;48.520;9.046;2022-12-20T07:58:42;3.20;99.90
44705;DHT22;30431;48.520;9.046;2022-12-20T08:01:10;3.30;99.90
44705;DHT22;30431;48.520;9.046;2022-12-20T08:03:46;3.50;99.90
44705;DHT22;30431;48.520;9.046;2022-12-20T08:06:16;3.50;99.90
44705;DHT22;30431;48.520;9.046;2022-12-20T08:08:49;3.50;99.90
44705;DHT22;30431;48.520;9.046;2022-12-20T08:11:17;3.60;99.90
44705;DHT22;30431;48.520;9.046;2022-12-20T08:13:46;3.70;99.90
44705;DHT22;30431;48.520;9.046;2022-12-20T08:16:21;3.70;99.90
44705;DHT22;30431;48.520;9.046;2022-12-20T08:18:48;3.90;99.90
44705;DHT22;30431;48.520;9.046;2022-12-20T08:21:15;3.90;99.90
44705;DHT22;30431;48.520;9.046;2022-12-20T08:23:42;4.00;99.90
44705;DHT22;30431;48.520;9.046;2022-12-20T08:26:09;4.20;99.90
44705;DHT22;30431;48.520;9.046;2022-12-20T08:28:42;4.30;99.90
44705;DHT22;30431;48.520;9.046;2022-12-20T08:31:09;4.30;99.90
44705;DHT22;30431;48.520;9.046;2022-12-20T08:33:37;4.40;99.90
44705;DHT22;30431;48.520;9.046;2022-12-20T08:36:08;4.40;99.90
44705;DHT22;30431;48.520;9.046;2022-12-20T08:38:39;4.40;99.90
44705;DHT22;30431;48.520;9.046;2022-12-20T08:41:13;4.50;99.90
44705;DHT22;30431;48.520;9.046;2022-12-20T08:43:41;4.60;99.90
44705;DHT22;30431;48.520;9.046;2022-12-20T08:46:11;4.70;99.90
44705;DHT22;30431;48.520;9.046;2022-12-20T08:48:39;4.80;99.90
44705;DHT22;30431;48.520;9.046;2022-12-20T08:51:10;4.90;99.90
44705;DHT22;30431;48.520;9.046;2022-12-20T08:53:42;5.00;99.90
44705;DHT22;30431;48.520;9.046;2022-12-20T08:56:14;5.20;99.90
44705;DHT22;30431;48.520;9.046;2022-12-20T08:58:43;5.00;99.90
44705;DHT22;30431;48.520;9.046;2022-12-20T09:01:18;5.20;99.90
44705;DHT22;30431;48.520;9.046;2022-12-20T09:03:46;5.10;99.90
44705;DHT22;30431;48.520;9.046;2022-12-20T09:06:19;4.80;99.90
44705;DHT22;30431;48.520;9.046;2022-12-20T09:08:51;5.00;99.90
44705;DHT22;30431;48.520;9.046;2022-12-20T09:11:21;5.10;99.90
44705;DHT22;30431;48.520;9.046;2022-12-20T09:13:50;5.30;99.90
44705;DHT22;30431;48.520;9.046;2022-12-20T09:16:25;5.50;99.90
44705;DHT22;30431;48.520;9.046;2022-12-20T09:18:55;5.60;99.90
44705;DHT22;30431;48.520;9.046;2022-12-20T09:21:33;5.70;99.90
44705;DHT22;30431;48.520;9.046;2022-12-20T09:24:00;5.70;99.90
44705;DHT22;30431;48.520;9.046;2022-12-20T09:26:27;5.50;99.90
44705;DHT22;30431;48.520;9.046;2022-12-20T09:28:57;5.60;99.90
44705;DHT22;30431;48.520;9.046;2022-12-20T09:31:29;5.60;99.90
44705;DHT22;30431;48.520;9.046;2022-12-20T09:33:58;5.80;99.90
44705;DHT22;30431;48.520;9.046;2022-12-20T09:36:31;5.80;99.90
44705;DHT22;30431;48.520;9.046;2022-12-20T09:39:01;6.00;99.90
44705;DHT22;30431;48.520;9.046;2022-12-20T09:41:32;6.00;99.90
44705;DHT22;30431;48.520;9.046;2022-12-20T09:46:56;6.30;99.90
44705;DHT22;30431;48.520;9.046;2022-12-20T09:49:39;6.30;99.90
44705;DHT22;30431;48.520;9.046;2022-12-20T10:00:49;6.70;99.90
44705;DHT22;30431;48.520;9.046;2022-12-20T10:03:26;6.90;99.90
44705;DHT22;30431;48.520;9.046;2022-12-20T10:06:01;7.20;99.90
44705;DHT22;30431;48.520;9.046;2022-12-20T10:08:42;6.90;99.90
44705;DHT22;30431;48.520;9.046;2022-12-20T10:16:45;6.80;99.90
44705;DHT22;30431;48.520;9.046;2022-12-20T10:21:50;6.40;99.90
44705;DHT22;30431;48.520;9.046;2022-12-20T10:24:32;6.20;99.90
44705;DHT22;30431;48.520;9.046;2022-12-20T10:27:13;6.10;99.90
44705;DHT22;30431;48.520;9.046;2022-12-20T10:29:44;6.00;99.90
44705;DHT22;30431;48.520;9.046;2022-12-20T10:32:17;6.00;99.90
44705;DHT22;30431;48.520;9.046;2022-12-20T10:37:19;5.90;99.90
44705;DHT22;30431;48.520;9.046;2022-12-20T10:39:49;5.80;99.90
44705;DHT22;30431;48.520;9.046;2022-12-20T10:42:37;5.80;99.90
44705;DHT22;30431;48.520;9.046;2022-12-20T10:47:44;5.40;99.90
44705;DHT22;30431;48.520;9.046;2022-12-20T10:50:17;5.30;99.90
44705;DHT22;30431;48.520;9.046;2022-12-20T10:53:16;5.40;99.90
44705;DHT22;30431;48.520;9.046;2022-12-20T10:55:45;5.40;99.90
44705;DHT22;30431;48.520;9.046;2022-12-20T11:01:26;5.20;99.90
44705;DHT22;30431;48.520;9.046;2022-12-20T11:04:06;5.20;99.90
44705;DHT22;30431;48.520;9.046;2022-12-20T11:06:44;5.30;99.90
44705;DHT22;30431;48.520;9.046;2022-12-20T11:11:39;5.40;99.90
44705;DHT22;30431;48.520;9.046;2022-12-20T11:14:22;5.50;99.90
44705;DHT22;30431;48.520;9.046;2022-12-20T11:16:56;5.40;99.90
44705;DHT22;30431;48.520;9.046;2022-12-20T11:20:33;5.10;99.90
44705;DHT22;30431;48.520;9.046;2022-12-20T11:30:37;5.60;99.90
44705;DHT22;30431;48.520;9.046;2022-12-20T11:36:25;5.90;99.90
44705;DHT22;30431;48.520;9.046;2022-12-20T11:41:53;6.20;99.90
44705;DHT22;30431;48.520;9.046;2022-12-20T11:44:55;6.40;99.90
44705;DHT22;30431;48.520;9.046;2022-12-20T11:50:51;6.70;99.90
44705;DHT22;30431;48.520;9.046;2022-12-20T11:56:32;6.50;99.90
44705;DHT22;30431;48.520;9.046;2022-12-20T12:02:04;6.10;99.90
44705;DHT22;30431;48.520;9.046;2022-12-20T12:04:43;6.30;99.90
44705;DHT22;30431;48.520;9.046;2022-12-20T12:07:37;6.30;99.90
44705;DHT22;30431;48.520;9.046;2022-12-20T12:10:24;6.30;99.90
44705;DHT22;30431;48.520;9.046;2022-12-20T12:15:40;5.70;99.90
44705;DHT22;30431;48.520;9.046;2022-12-20T12:18:28;5.70;99.90
44705;DHT22;30431;48.520;9.046;2022-12-20T12:26:39;6.50;99.90
44705;DHT22;30431;48.520;9.046;2022-12-20T12:45:47;6.30;99.90
44705;DHT22;30431;48.520;9.046;2022-12-20T12:48:18;6.30;99.90
44705;DHT22;30431;48.520;9.046;2022-12-20T12:50:50;6.30;99.90
44705;DHT22;30431;48.520;9.046;2022-12-20T12:53:32;6.30;99.90
44705;DHT22;30431;48.520;9.046;2022-12-20T13:25:35;6.40;99.90
44705;DHT22;30431;48.520;9.046;2022-12-20T13:30:47;6.30;99.90
44705;DHT22;30431;48.520;9.046;2022-12-20T13:33:47;6.30;99.90
44705;DHT22;30431;48.520;9.046;2022-12-20T13:41:33;6.50;99.90
44705;DHT22;30431;48.520;9.046;2022-12-20T13:54:43;6.40;99.90
44705;DHT22;30431;48.520;9.046;2022-12-20T13:57:41;6.30;99.90
44705;DHT22;30431;48.520;9.046;2022-12-20T14:00:18;6.50;99.90
44705;DHT22;30431;48.520;9.046;2022-12-20T14:02:53;6.50;99.90
44705;DHT22;30431;48.520;9.046;2022-12-20T14:05:42;6.50;99.90
44705;DHT22;30431;48.520;9.046;2022-12-20T14:08:21;6.40;99.90
44705;DHT22;30431;48.520;9.046;2022-12-20T14:10:52;6.50;99.90
44705;DHT22;30431;48.520;9.046;2022-12-20T14:13:24;6.60;99.90
44705;DHT22;30431;48.520;9.046;2022-12-20T14:15:54;6.60;99.90
44705;DHT22;30431;48.520;9.046;2022-12-20T14:18:24;6.80;99.90
44705;DHT22;30431;48.520;9.046;2022-12-20T14:20:55;6.90;99.90
44705;DHT22;30431;48.520;9.046;2022-12-20T14:23:45;6.90;99.90
44705;DHT22;30431;48.520;9.046;2022-12-20T14:26:17;6.90;99.90
44705;DHT22;30431;48.520;9.046;2022-12-20T14:28:54;6.80;99.90
44705;DHT22;30431;48.520;9.046;2022-12-20T14:36:38;6.70;99.90
44705;DHT22;30431;48.520;9.046;2022-12-20T14:39:24;6.60;99.90
44705;DHT22;30431;48.520;9.046;2022-12-20T14:44:27;6.30;99.90
44705;DHT22;30431;48.520;9.046;2022-12-20T14:46:56;6.20;99.90
44705;DHT22;30431;48.520;9.046;2022-12-20T14:49:28;6.20;99.90
44705;DHT22;30431;48.520;9.046;2022-12-20T14:52:13;6.10;99.90
44705;DHT22;30431;48.520;9.046;2022-12-20T14:54:46;5.90;99.90
44705;DHT22;30431;48.520;9.046;2022-12-20T14:57:50;5.90;99.90
44705;DHT22;30431;48.520;9.046;2022-12-20T15:10:52;5.50;99.90
44705;DHT22;30431;48.520;9.046;2022-12-20T15:16:11;5.50;99.90
44705;DHT22;30431;48.520;9.046;2022-12-20T15:18:39;5.50;99.90
44705;DHT22;30431;48.520;9.046;2022-12-20T15:23:47;5.40;99.90
44705;DHT22;30431;48.520;9.046;2022-12-20T15:26:15;5.20;99.90
44705;DHT22;30431;48.520;9.046;2022-12-20T15:28:45;5.20;99.90
44705;DHT22;30431;48.520;9.046;2022-12-20T15:31:19;5.20;99.90
44705;DHT22;30431;48.520;9.046;2022-12-20T15:33:51;5.20;99.90
44705;DHT22;30431;48.520;9.046;2022-12-20T15:36:27;5.10;99.90
44705;DHT22;30431;48.520;9.046;2022-12-20T15:38:58;5.20;99.90
44705;DHT22;30431;48.520;9.046;2022-12-20T15:41:45;5.30;99.90
44705;DHT22;30431;48.520;9.046;2022-12-20T15:44:18;5.10;99.90
44705;DHT22;30431;48.520;9.046;2022-12-20T15:46:50;5.10;99.90
44705;DHT22;30431;48.520;9.046;2022-12-20T15:49:28;5.00;99.90
44705;DHT22;30431;48.520;9.046;2022-12-20T15:51:55;5.00;99.90
44705;DHT22;30431;48.520;9.046;2022-12-20T15:54:30;5.00;99.90
44705;DHT22;30431;48.520;9.046;2022-12-20T15:57:00;5.00;99.90
44705;DHT22;30431;48.520;9.046;2022-12-20T15:59:35;4.90;99.90
44705;DHT22;30431;48.520;9.046;2022-12-20T16:02:26;4.80;99.90
44705;DHT22;30431;48.520;9.046;2022-12-20T16:04:55;4.80;99.90
44705;DHT22;30431;48.520;9.046;2022-12-20T16:07:24;4.80;99.90
44705;DHT22;30431;48.520;9.046;2022-12-20T16:09:52;4.70;99.90
44705;DHT22;30431;48.520;9.046;2022-12-20T16:12:37;4.60;99.90
44705;DHT22;30431;48.520;9.046;2022-12-20T16:15:05;4.60;99.90
44705;DHT22;30431;48.520;9.046;2022-12-20T16:17:34;4.60;99.90
44705;DHT22;30431;48.520;9.046;2022-12-20T16:20:01;4.60;99.90
44705;DHT22;30431;48.520;9.046;2022-12-20T16:22:28;4.70;99.90
44705;DHT22;30431;48.520;9.046;2022-12-20T16:24:55;4.70;99.90
44705;DHT22;30431;48.520;9.046;2022-12-20T16:27:22;4.70;99.90
44705;DHT22;30431;48.520;9.046;2022-12-20T16:29:49;4.70;99.90
44705;DHT22;30431;48.520;9.046;2022-12-20T16:32:20;4.70;99.90
44705;DHT22;30431;48.520;9.046;2022-12-20T16:34:48;4.70;99.90
44705;DHT22;30431;48.520;9.046;2022-12-20T16:37:16;4.80;99.90
44705;DHT22;30431;48.520;9.046;2022-12-20T16:39:43;4.80;99.90
44705;DHT22;30431;48.520;9.046;2022-12-20T16:42:15;4.80;99.90
44705;DHT22;30431;48.520;9.046;2022-12-20T16:44:43;4.80;99.90
44705;DHT22;30431;48.520;9.046;2022-12-20T16:47:14;4.80;99.90
44705;DHT22;30431;48.520;9.046;2022-12-20T16:49:43;4.80;99.90
44705;DHT22;30431;48.520;9.046;2022-12-20T16:52:20;4.70;99.90
44705;DHT22;30431;48.520;9.046;2022-12-20T16:54:49;4.80;99.90
44705;DHT22;30431;48.520;9.046;2022-12-20T16:57:19;4.70;99.90
44705;DHT22;30431;48.520;9.046;2022-12-20T16:59:47;4.70;99.90
44705;DHT22;30431;48.520;9.046;2022-12-20T17:02:27;4.70;99.90
44705;DHT22;30431;48.520;9.046;2022-12-20T17:04:55;4.70;99.90
44705;DHT22;30431;48.520;9.046;2022-12-20T17:07:22;4.70;99.90
44705;DHT22;30431;48.520;9.046;2022-12-20T17:09:53;4.70;99.90
44705;DHT22;30431;48.520;9.046;2022-12-20T17:12:25;4.80;99.90
44705;DHT22;30431;48.520;9.046;2022-12-20T17:14:54;4.80;99.90
44705;DHT22;30431;48.520;9.046;2022-12-20T17:17:22;4.90;99.90
44705;DHT22;30431;48.520;9.046;2022-12-20T17:19:51;4.90;99.90
44705;DHT22;30431;48.520;9.046;2022-12-20T17:22:23;5.00;99.90
44705;DHT22;30431;48.520;9.046;2022-12-20T17:27:48;4.90;99.90
44705;DHT22;30431;48.520;9.046;2022-12-20T17:30:15;4.90;99.90
44705;DHT22;30431;48.520;9.046;2022-12-20T17:32:43;4.90;99.90
44705;DHT22;30431;48.520;9.046;2022-12-20T17:35:18;4.80;99.90
44705;DHT22;30431;48.520;9.046;2022-12-20T17:37:46;4.70;99.90
44705;DHT22;30431;48.520;9.046;2022-12-20T17:40:14;4.80;99.90
44705;DHT22;30431;48.520;9.046;2022-12-20T17:42:41;4.90;99.90
44705;DHT22;30431;48.520;9.046;2022-12-20T17:45:22;4.90;99.90
44705;DHT22;30431;48.520;9.046;2022-12-20T17:47:54;4.90;99.90
44705;DHT22;30431;48.520;9.046;2022-12-20T17:50:24;4.90;99.90
44705;DHT22;30431;48.520;9.046;2022-12-20T17:52:52;4.90;99.90
44705;DHT22;30431;48.520;9.046;2022-12-20T17:55:25;4.80;99.90
44705;DHT22;30431;48.520;9.046;2022-12-20T17:57:54;4.80;99.90
44705;DHT22;30431;48.520;9.046;2022-12-20T18:00:29;4.80;99.90
44705;DHT22;30431;48.520;9.046;2022-12-20T18:03:04;4.80;99.90
44705;DHT22;30431;48.520;9.046;2022-12-20T18:05:31;4.80;99.90
44705;DHT22;30431;48.520;9.046;2022-12-20T18:07:58;4.70;99.90
44705;DHT22;30431;48.520;9.046;2022-12-20T18:10:30;4.70;99.90
44705;DHT22;30431;48.520;9.046;2022-12-20T18:12:57;4.70;99.90
44705;DHT22;30431;48.520;9.046;2022-12-20T18:15:24;4.70;99.90
44705;DHT22;30431;48.520;9.046;2022-12-20T18:17:51;4.60;99.90
44705;DHT22;30431;48.520;9.046;2022-12-20T18:20:20;4.60;99.90
44705;DHT22;30431;48.520;9.046;2022-12-20T18:22:50;4.50;99.90
44705;DHT22;30431;48.520;9.046;2022-12-20T18:25:17;4.50;99.90
44705;DHT22;30431;48.520;9.046;2022-12-20T18:27:44;4.50;99.90
44705;DHT22;30431;48.520;9.046;2022-12-20T18:30:11;4.40;99.90
44705;DHT22;30431;48.520;9.046;2022-12-20T18:32:39;4.40;99.90
44705;DHT22;30431;48.520;9.046;2022-12-20T18:35:09;4.40;99.90
44705;DHT22;30431;48.520;9.046;2022-12-20T18:37:36;4.40;99.90
44705;DHT22;30431;48.520;9.046;2022-12-20T18:40:04;4.40;99.90
44705;DHT22;30431;48.520;9.046;2022-12-20T18:42:33;4.50;99.90
44705;DHT22;30431;48.520;9.046;2022-12-20T18:45:03;4.50;99.90
44705;DHT22;30431;48.520;9.046;2022-12-20T18:47:31;4.40;99.90
44705;DHT22;30431;48.520;9.046;2022-12-20T18:49:58;4.20;99.90
44705;DHT22;30431;48.520;9.046;2022-12-20T18:52:27;4.20;99.90
44705;DHT22;30431;48.520;9.046;2022-12-20T18:54:54;4.20;99.90
44705;DHT22;30431;48.520;9.046;2022-12-20T18:57:22;4.30;99.90
44705;DHT22;30431;48.520;9.046;2022-12-20T18:59:49;4.10;99.90
44705;DHT22;30431;48.520;9.046;2022-12-20T19:02:21;4.10;99.90
44705;DHT22;30431;48.520;9.046;2022-12-20T19:04:49;3.90;99.90
44705;DHT22;30431;48.520;9.046;2022-12-20T19:07:16;3.90;99.90
44705;DHT22;30431;48.520;9.046;2022-12-20T19:09:45;3.90;99.90
44705;DHT22;30431;48.520;9.046;2022-12-20T19:12:12;4.00;99.90
44705;DHT22;30431;48.520;9.046;2022-12-20T19:14:44;4.00;99.90